Flight Track Log - Related Links

Times and Time Zones

All times are in EDT time to prevent confusion due to time zone crossing. See the SWA279 flight status page for this flight to view local times or setup timezone preferences in your user account.

Time Position Orientation Groundspeed Altitude Reporting Facility
EDT Latitude Longitude Course Direction KTS MPH feet Rate Location/Type
Fri 07:10:40 AM 42.9500 -71.4333 274° West 167 192 1,300  Level KA90
Fri 07:12:04 AM 43.0333 -71.5000 330° Northwest 281 323 5,100 3,381 Climbing KA90
Fri 07:12:46 AM 43.0833 -71.5167 346° North 267 307 8,400 3,063 Climbing KA90
Fri 07:13:40 AM 43.1161 -71.5697 310° West 296 341 10,000 2,368 Climbing Boston Center
Fri 07:14:40 AM 43.1275 -71.6919 277° West 250 288 12,900 2,950 Climbing Boston Center
Fri 07:15:40 AM 43.1300 -71.8000 272° West 299 344 15,900 2,850 Climbing Boston Center
Fri 07:16:00 AM 42.9537 -72.2817 274° West  Level FlightAware Approximate
Fri 07:16:40 AM 43.1328 -71.9053 272° West 317 365 18,600  Level Boston Center
Fri 07:17:40 AM 43.1375 -72.0447 273° West 322 371 21,300 2,600 Climbing Boston Center
Fri 07:18:40 AM 43.1419 -72.1669 273° West 347 399 23,800 2,400 Climbing Boston Center
Fri 07:19:40 AM 43.1444 -72.3292 271° West 353 406 26,100 1,900 Climbing Boston Center
Fri 07:20:40 AM 43.1486 -72.4772 272° West 369 425 27,600 1,682 Climbing Boston Center
Fri 07:21:52 AM 43.1506 -72.6592 271° West 393 452 29,800 1,636 Climbing Boston Center
Fri 07:22:52 AM 43.1542 -72.8186 272° West 411 473 31,200 1,450 Climbing Boston Center
Fri 07:23:52 AM 43.1556 -72.9753 271° West 416 479 32,700 1,600 Climbing Boston Center
Fri 07:24:52 AM 43.1589 -73.1344 272° West 421 484 34,400 1,600 Climbing Boston Center
Fri 07:25:52 AM 43.1619 -73.2939 272° West 421 484 35,900 1,500 Climbing Boston Center
Fri 07:26:52 AM 43.1589 -73.4250 268° West 407 468 37,400 1,050 Climbing Boston Center
Fri 07:27:52 AM 43.1636 -73.5786 272° West 402 463 38,000 300 Climbing Boston Center
Fri 07:28:52 AM 43.1639 -73.7553 270° West 407 468 38,000  Level Boston Center
Fri 07:29:52 AM 43.1642 -73.9144 270° West 417 480 38,000  Level Boston Center
Fri 07:30:52 AM 43.1661 -74.0742 271° West 422 486 38,000  Level Boston Center
Fri 07:31:52 AM 43.1681 -74.2278 271° West 417 480 38,000  Level Boston Center
Fri 07:32:52 AM 43.1675 -74.3786 270° West 412 474 38,000  Level Boston Center
Fri 07:33:52 AM 43.1689 -74.5325 271° West 407 468 38,000  Level Boston Center
Fri 07:34:52 AM 43.1703 -74.6864 271° West 407 468 38,000  Level Boston Center
Fri 07:35:52 AM 43.1692 -74.8428 269° West 407 468 38,000  Level Boston Center
Fri 07:36:52 AM 43.1678 -74.9964 269° West 407 468 38,000  Level Boston Center
Fri 07:38:04 AM 43.1664 -75.1531 269° West 407 468 38,000  Level Boston Center
Fri 07:39:04 AM 43.1664 -75.3239 270° West 407 468 38,000  Level Boston Center
Fri 07:40:04 AM 43.1664 -75.4806 270° West 407 468 38,000  Level Boston Center
Fri 07:41:04 AM 43.1672 -75.6058 271° West 407 468 38,000  Level Boston Center
Fri 07:42:04 AM 43.1661 -75.7936 270° West 407 468 38,000  Level Boston Center
Fri 07:44:09 AM 43.1606 -76.1369 269° West 408 470 38,000  Level Cleveland Center
Fri 07:45:09 AM 43.1369 -76.2839 258° West 408 470 38,000  Level Cleveland Center
Fri 07:46:09 AM 43.0900 -76.4264 246° West 403 464 38,000  Level Cleveland Center
Fri 07:47:09 AM 43.0450 -76.5717 247° West 413 475 38,000  Level Cleveland Center
Fri 07:48:09 AM 42.9981 -76.7167 246° West 418 481 38,000  Level Cleveland Center
Fri 07:49:09 AM 42.9525 -76.8583 246° West 418 481 38,000  Level Cleveland Center
Fri 07:50:09 AM 42.9031 -77.0089 246° West 429 494 38,000  Level Cleveland Center
Fri 07:51:09 AM 42.8556 -77.1561 246° West 429 494 38,000  Level Cleveland Center
Fri 07:52:09 AM 42.8097 -77.3000 247° West 429 494 38,000  Level Cleveland Center
Fri 07:53:09 AM 42.7594 -77.4469 245° Southwest 429 494 38,000  Level Cleveland Center
Fri 07:54:09 AM 42.7208 -77.5647 246° West 429 494 38,000  Level Cleveland Center
Fri 07:55:09 AM 42.6647 -77.7342 246° West 429 494 38,000  Level Cleveland Center
Fri 07:56:09 AM 42.6219 -77.8658 246° West 429 494 38,000  Level Cleveland Center
Fri 07:57:09 AM 42.5731 -78.0033 244° Southwest 424 488 38,000  Level Cleveland Center
Fri 07:58:09 AM 42.5261 -78.1461 246° West 424 488 38,000  Level Cleveland Center
Fri 07:59:09 AM 42.4792 -78.2886 246° West 424 488 38,000  Level Cleveland Center
Fri 08:00:09 AM 42.4297 -78.4283 244° Southwest 424 488 38,000  Level Cleveland Center
Fri 08:01:09 AM 42.3822 -78.5678 245° Southwest 424 488 38,000  Level Cleveland Center
Fri 08:02:09 AM 42.3344 -78.7069 245° Southwest 419 482 38,000  Level Cleveland Center
Fri 08:03:09 AM 42.2867 -78.8458 245° Southwest 414 476 38,000  Level Cleveland Center
Fri 08:04:09 AM 42.2325 -78.9986 244° Southwest 414 476 38,000  Level Cleveland Center
Fri 08:05:09 AM 42.1906 -79.1342 247° West 409 471 38,000  Level Cleveland Center
Fri 08:06:09 AM 42.1861 -79.2803 268° West 385 443 38,000  Level Cleveland Center
Fri 08:07:09 AM 42.1875 -79.4258 271° West 392 451 38,000  Level Cleveland Center
Fri 08:08:09 AM 42.1869 -79.5717 270° West 392 451 38,000  Level Cleveland Center
Fri 08:09:09 AM 42.1881 -79.7144 271° West 387 445 38,000  Level Cleveland Center
Fri 08:10:09 AM 42.1869 -79.8603 269° West 387 445 38,000  Level Cleveland Center
Fri 08:11:09 AM 42.1856 -79.9892 269° West 387 445 38,000  Level Cleveland Center
Fri 08:12:09 AM 42.1883 -80.1347 272° West 381 438 38,000  Level Cleveland Center
Fri 08:13:09 AM 42.1867 -80.2778 269° West 386 444 38,000  Level Cleveland Center
Fri 08:14:09 AM 42.1850 -80.4375 269° West 386 444 38,000  Level Cleveland Center
Fri 08:15:09 AM 42.1831 -80.5858 269° West 386 444 38,000  Level Cleveland Center
Fri 08:16:09 AM 42.1828 -80.7317 270° West 386 444 38,000  Level Cleveland Center
Fri 08:17:09 AM 42.1825 -80.8803 270° West 391 450 38,000  Level Cleveland Center
Fri 08:18:09 AM 42.1800 -81.0231 269° West 386 444 38,000  Level Cleveland Center
Fri 08:19:09 AM 42.1772 -81.1658 269° West 386 444 38,000  Level Cleveland Center
Fri 08:20:09 AM 42.1767 -81.3061 270° West 381 438 38,000  Level Cleveland Center
Fri 08:21:09 AM 42.1733 -81.4517 268° West 386 444 38,000  Level Cleveland Center
Fri 08:22:09 AM 42.1722 -81.5917 269° West 381 438 38,000  Level Cleveland Center
Fri 08:23:09 AM 42.1711 -81.7317 269° West 381 438 38,000  Level Cleveland Center
Fri 08:24:09 AM 42.1675 -81.8661 268° West 381 438 38,000  Level Cleveland Center
Fri 08:25:09 AM 42.1636 -82.0061 268° West 376 433 38,000  Level Cleveland Center
Fri 08:26:09 AM 42.1619 -82.1433 269° West 376 433 38,000  Level Cleveland Center
Fri 08:27:09 AM 42.1581 -82.2806 268° West 370 426 38,000  Level Cleveland Center
Fri 08:28:09 AM 42.1558 -82.4206 269° West 370 426 38,000  Level Cleveland Center
Fri 08:29:09 AM 42.1533 -82.5606 269° West 370 426 38,000  Level Cleveland Center
Fri 08:30:09 AM 42.1425 -82.7058 264° West 375 432 38,000  Level Cleveland Center
Fri 08:31:09 AM 42.1461 -82.8461 272° West 380 437 38,000  Level Cleveland Center
Fri 08:32:09 AM 42.1411 -82.9886 267° West 385 443 38,000  Level Cleveland Center
Fri 08:33:09 AM 42.1361 -83.1258 267° West 385 443 38,000  Level Cleveland Center
Fri 08:34:09 AM 42.1328 -83.2656 268° West 380 437 38,000  Level Cleveland Center
Fri 08:35:09 AM 42.1275 -83.4053 267° West 380 437 38,000  Level Cleveland Center
Fri 08:36:09 AM 42.1219 -83.5422 267° West 380 437 38,000  Level Cleveland Center
Fri 08:37:09 AM 42.1186 -83.6681 268° West 374 430 38,000  Level Cleveland Center
Fri 08:38:09 AM 42.1150 -83.8022 268° West 374 430 38,000  Level Cleveland Center
Fri 08:39:09 AM 42.1111 -83.9394 268° West 374 430 38,000  Level Cleveland Center
Fri 08:41:06 AM 42.1036 -84.1953 268° West 367 422 38,000  Level Chicago Center
Fri 08:42:08 AM 42.0969 -84.3603 267° West 368 423 38,000  Level Chicago Center
Fri 08:43:10 AM 42.0908 -84.4972 267° West 368 423 38,000  Level Chicago Center
Fri 08:44:11 AM 42.0853 -84.6356 267° West 370 426 38,000  Level Chicago Center
Fri 08:45:13 AM 42.0792 -84.7739 267° West 371 427 38,000  Level Chicago Center
Fri 08:46:15 AM 42.0733 -84.9111 267° West 368 423 38,000  Level Chicago Center
Fri 08:47:17 AM 42.0678 -85.0481 267° West 368 423 38,000  Level Chicago Center
Fri 08:48:19 AM 42.0608 -85.1864 266° West 370 426 38,000  Level Chicago Center
Fri 08:49:20 AM 42.0533 -85.3494 267° West 365 420 38,000  Level Chicago Center
Fri 08:50:22 AM 42.0461 -85.4858 266° West 366 421 38,000  Level Chicago Center
Fri 08:51:24 AM 42.0392 -85.6242 266° West 369 425 38,000  Level Chicago Center
Fri 08:52:26 AM 42.0322 -85.7614 266° West 369 425 38,000  Level Chicago Center
Fri 08:53:27 AM 42.0247 -85.8986 266° West 367 422 38,000  Level Chicago Center
Fri 08:54:29 AM 42.0169 -86.0481 266° West 372 428 38,000  Level Chicago Center
Fri 08:55:31 AM 42.0097 -86.1856 266° West 371 427 38,000  Level Chicago Center
Fri 08:56:32 AM 42.0011 -86.3239 265° West 372 428 38,000  Level Chicago Center
Fri 08:57:34 AM 41.9936 -86.4625 266° West 373 429 38,000  Level Chicago Center
Fri 08:58:36 AM 41.9858 -86.5992 266° West 370 426 38,000  Level Chicago Center
Fri 08:59:38 AM 41.9775 -86.7578 266° West 366 421 38,000  Level Chicago Center
Fri 09:00:39 AM 41.9683 -86.8925 265° West 363 418 38,000  Level Chicago Center
Fri 09:01:41 AM 41.9600 -87.0267 265° West 363 418 38,000  Level Chicago Center
Fri 09:02:43 AM 41.9581 -87.1597 269° West 360 414 38,000  Level Chicago Center
Fri 09:03:44 AM 41.9542 -87.2928 268° West 359 413 38,000  Level Chicago Center
Fri 09:04:46 AM 41.9472 -87.4519 267° West 358 412 38,000  Level Chicago Center
Fri 09:05:48 AM 41.9439 -87.5856 268° West 362 417 38,000  Level Chicago Center
Fri 09:06:50 AM 41.9386 -87.7194 267° West 363 418 38,000  Level Chicago Center
Fri 09:07:51 AM 41.9339 -87.8542 267° West 364 419 38,000  Level Chicago Center
Fri 09:08:53 AM 41.9286 -87.9889 267° West 365 420 38,000  Level Chicago Center
Fri 09:09:55 AM 41.9225 -88.1486 267° West 361 415 38,000  Level Chicago Center
Fri 09:10:57 AM 41.9175 -88.2814 267° West 360 414 38,000  Level Chicago Center
Fri 09:11:58 AM 41.9117 -88.4144 267° West 361 415 38,000  Level Chicago Center
Fri 09:13:00 AM 41.9067 -88.5503 267° West 367 422 38,000  Level Chicago Center
Fri 09:14:02 AM 41.9006 -88.6828 266° West 362 417 38,000  Level Chicago Center
Fri 09:15:04 AM 41.8939 -88.8458 267° West 368 423 38,000  Level Chicago Center
Fri 09:16:06 AM 41.8875 -88.9794 266° West 363 418 38,000  Level Chicago Center
Fri 09:17:08 AM 41.8808 -89.1139 266° West 365 420 38,000  Level Chicago Center
Fri 09:18:09 AM 41.8753 -89.2503 267° West 369 425 38,000  Level Chicago Center
Fri 09:19:11 AM 41.8689 -89.3839 266° West 362 417 38,000  Level Chicago Center
Fri 09:20:13 AM 41.8617 -89.5183 266° West 362 417 38,000  Level Chicago Center
Fri 09:21:15 AM 41.8536 -89.6775 266° West 357 411 38,000  Level Chicago Center
Fri 09:22:17 AM 41.8464 -89.8103 266° West 359 413 38,000  Level Chicago Center
Fri 09:23:19 AM 41.8411 -89.9472 267° West 358 412 38,000  Level Chicago Center
Fri 09:24:21 AM 41.8336 -90.0800 266° West 359 413 38,000 293 Level Chicago Center
Fri 09:25:22 AM 41.8261 -90.2119 266° West 358 412 38,600 780 Climbing Chicago Center
Fri 09:26:24 AM 41.8181 -90.3444 265° West 359 413 39,600 677 Climbing Chicago Center
Fri 09:27:26 AM 41.8119 -90.4758 266° West 356 410 40,000 194 Climbing Chicago Center
Fri 09:28:28 AM 41.8000 -90.6389 264° West 367 422 40,000  Level Chicago Center
Fri 09:29:30 AM 41.7919 -90.7756 266° West 370 426 40,000  Level Chicago Center
Fri 09:30:32 AM 41.7831 -90.9114 265° West 368 423 40,000  Level Chicago Center
Fri 09:31:34 AM 41.7753 -91.0431 266° West 361 415 40,000  Level Chicago Center
Fri 09:32:36 AM 41.7656 -91.1764 264° West 361 415 40,000  Level Chicago Center
Fri 09:33:38 AM 41.7572 -91.3103 265° West 364 419 40,000  Level Chicago Center
Fri 09:34:39 AM 41.7469 -91.4683 265° West 358 412 40,000  Level Chicago Center
Fri 09:35:41 AM 41.7378 -91.5994 265° West 355 409 40,000  Level Chicago Center
Fri 09:36:43 AM 41.7289 -91.7317 265° West 358 412 40,000  Level Chicago Center
Fri 09:37:45 AM 41.7186 -91.8642 264° West 360 414 40,000  Level Chicago Center
Fri 09:38:47 AM 41.7092 -91.9989 265° West 363 418 40,000  Level Chicago Center
Fri 09:39:49 AM 41.6994 -92.1344 265° West 368 423 40,000  Level Chicago Center
Fri 09:40:51 AM 41.6875 -92.2939 264° West 363 418 40,000  Level Chicago Center
Fri 09:41:53 AM 41.6775 -92.4306 264° West 369 425 40,000  Level Chicago Center
Fri 09:42:54 AM 41.6661 -92.5669 264° West 371 427 40,000  Level Chicago Center
Fri 09:43:44 AM 41.6572 -92.6914 265° West 374 430 40,000  Level Minneapolis Center
Fri 09:44:45 AM 41.6461 -92.8275 264° West 372 428 40,000  Level Minneapolis Center
Fri 09:45:47 AM 41.6350 -92.9644 264° West 374 430 40,000  Level Minneapolis Center
Fri 09:46:49 AM 41.6239 -93.1000 264° West 372 428 40,000  Level Minneapolis Center
Fri 09:47:50 AM 41.6128 -93.2342 264° West 369 425 40,000  Level Minneapolis Center
Fri 09:48:52 AM 41.5989 -93.3969 264° West 371 427 40,000  Level Minneapolis Center
Fri 09:50:06 AM 41.5878 -93.5303 264° West 367 422 40,000  Level Minneapolis Center
Fri 09:51:08 AM 41.5747 -93.6897 264° West 364 419 40,000  Level Minneapolis Center
Fri 09:52:09 AM 41.5636 -93.8264 264° West 370 426 40,000  Level Minneapolis Center
Fri 09:53:11 AM 41.5503 -93.9636 263° West 374 430 40,000  Level Minneapolis Center
Fri 09:54:13 AM 41.5389 -94.1006 264° West 375 432 40,000  Level Minneapolis Center
Fri 09:55:14 AM 41.5217 -94.2633 262° West 384 442 40,000  Level Minneapolis Center
Fri 09:56:16 AM 41.5086 -94.4017 263° West 378 435 40,000  Level Minneapolis Center
Fri 09:57:18 AM 41.4958 -94.5428 263° West 382 440 40,000  Level Minneapolis Center
Fri 09:58:19 AM 41.4817 -94.6828 262° West 381 438 40,000  Level Minneapolis Center
Fri 09:59:21 AM 41.4675 -94.8211 262° West 379 436 40,000  Level Minneapolis Center
Fri 10:00:35 AM 41.4544 -94.9864 264° West 375 432 40,000  Level Minneapolis Center
Fri 10:01:37 AM 41.4381 -95.1475 262° West 369 425 40,000  Level Minneapolis Center
Fri 10:02:39 AM 41.4242 -95.2833 262° West 370 426 40,000  Level Minneapolis Center
Fri 10:03:40 AM 41.4092 -95.4206 262° West 373 429 40,000  Level Minneapolis Center
Fri 10:04:42 AM 41.3944 -95.5575 262° West 373 429 40,000  Level Minneapolis Center
Fri 10:05:44 AM 41.3800 -95.7175 263° West 376 433 40,000  Level Minneapolis Center
Fri 10:06:45 AM 41.3636 -95.8564 261° West 380 437 40,000  Level Minneapolis Center
Fri 10:07:59 AM 41.3492 -95.9956 262° West 379 436 40,000  Level Minneapolis Center
Fri 10:09:01 AM 41.3322 -96.1636 262° West 383 441 40,000  Level Minneapolis Center
Fri 10:10:03 AM 41.3153 -96.3042 261° West 386 444 40,000  Level Minneapolis Center
Fri 10:11:17 AM 41.3008 -96.4375 262° West 387 445 40,000  Level Minneapolis Center
Fri 10:12:19 AM 41.2778 -96.6356 261° West 387 445 40,000  Level Minneapolis Center
Fri 10:13:21 AM 41.2619 -96.7789 262° West 391 450 40,000  Level Minneapolis Center
Fri 10:14:23 AM 41.2450 -96.9208 261° West 391 450 40,000  Level Minneapolis Center
Fri 10:15:24 AM 41.2281 -97.0622 261° West 389 448 40,000  Level Minneapolis Center
Fri 10:16:26 AM 41.2117 -97.2025 261° West 387 445 40,000  Level Minneapolis Center
Fri 10:17:28 AM 41.1944 -97.3422 261° West 385 443 40,000  Level Minneapolis Center
Fri 10:18:30 AM 41.1764 -97.4903 261° West 381 438 40,000  Level Minneapolis Center
Fri 10:19:32 AM 41.1597 -97.6311 261° West 384 442 40,000  Level Minneapolis Center
Fri 10:20:34 AM 41.1417 -97.7703 260° West 382 440 40,000  Level Minneapolis Center
Fri 10:21:36 AM 41.1214 -97.9400 261° West 386 444 40,000  Level Minneapolis Center
Fri 10:22:38 AM 41.1033 -98.0833 261° West 391 450 40,000  Level Minneapolis Center
Fri 10:23:40 AM 41.0850 -98.2275 260° West 395 455 40,000  Level Minneapolis Center
Fri 10:24:42 AM 41.0661 -98.3706 260° West 394 453 40,000  Level Minneapolis Center
Fri 10:25:44 AM 41.0456 -98.5303 260° West 395 455 40,000  Level Minneapolis Center
Fri 10:26:46 AM 41.0267 -98.6744 260° West 397 457 40,000  Level Minneapolis Center
Fri 10:27:47 AM 41.0061 -98.8192 259° West 399 459 40,000  Level Minneapolis Center
Fri 10:28:50 AM 40.9864 -98.9633 260° West 400 460 40,000  Level Minneapolis Center
Fri 10:29:51 AM 40.9672 -99.1069 260° West 398 458 40,000  Level Minneapolis Center
Fri 10:30:54 AM 40.9442 -99.2736 260° West 395 455 40,000  Level Minneapolis Center
Fri 10:31:18 AM 40.9356 -99.3311 259° West 395 455 40,000  Level Denver Center
Fri 10:32:20 AM 40.9161 -99.4725 260° West 393 452 40,000  Level Denver Center
Fri 10:33:22 AM 40.8958 -99.6150 259° West 394 453 40,000  Level Denver Center
Fri 10:34:23 AM 40.8744 -99.7575 259° West 394 453 40,000  Level Denver Center
Fri 10:35:25 AM 40.8522 -99.9131 259° West 397 457 40,000  Level Denver Center
Fri 10:36:27 AM 40.8314 -100.0503 259° West 399 459 40,000  Level Denver Center
Fri 10:37:29 AM 40.8067 -100.2119 259° West 401 461 40,000  Level Denver Center
Fri 10:38:31 AM 40.7869 -100.3511 259° West 402 463 40,000  Level Denver Center
Fri 10:39:33 AM 40.7619 -100.5128 259° West 401 461 40,000  Level Denver Center
Fri 10:40:35 AM 40.7397 -100.6528 258° West 402 463 40,000  Level Denver Center
Fri 10:41:37 AM 40.7172 -100.7969 258° West 408 470 40,000  Level Denver Center
Fri 10:42:39 AM 40.6919 -100.9617 259° West 407 468 40,000  Level Denver Center
Fri 10:43:41 AM 40.6700 -101.1014 258° West 406 467 40,000  Level Denver Center
Fri 10:44:43 AM 40.6444 -101.2633 258° West 404 465 40,000  Level Denver Center
Fri 10:45:45 AM 40.6219 -101.4022 258° West 406 467 40,000  Level Denver Center
Fri 10:46:47 AM 40.5994 -101.5394 258° West 403 464 40,000  Level Denver Center
Fri 10:47:49 AM 40.5736 -101.7006 258° West 401 461 40,000  Level Denver Center
Fri 10:48:51 AM 40.5511 -101.8394 258° West 406 467 40,000  Level Denver Center
Fri 10:49:53 AM 40.5253 -102.0000 258° West 403 464 40,000  Level Denver Center
Fri 10:50:55 AM 40.5014 -102.1381 257° West 405 466 40,000  Level Denver Center
Fri 10:51:57 AM 40.4744 -102.2969 257° West 400 460 40,000 -288 Level Denver Center
Fri 10:53:00 AM 40.4519 -102.4325 258° West 398 458 39,400 -816 Descending Denver Center
Fri 10:54:02 AM 40.4244 -102.5906 257° West 400 460 38,300 -919 Descending Denver Center
Fri 10:55:04 AM 40.4014 -102.7261 257° West 408 470 37,500 -1,113 Descending Denver Center
Fri 10:56:06 AM 40.3750 -102.8750 257° West 414 476 36,000 -3,000 Descending Denver Center
Fri 10:57:08 AM 40.3439 -103.0494 257° West 419 482 31,300 -5,129 Descending Denver Center
Fri 10:58:10 AM 40.3164 -103.2083 257° West 444 511 25,400 -3,968 Descending Denver Center
Fri 10:59:12 AM 40.2894 -103.3650 257° West 439 505 23,100 -1,984 Descending Denver Center
Fri 11:00:14 AM 40.2642 -103.5042 257° West 394 453 21,300 -1,742 Descending Denver Center
Fri 11:01:16 AM 40.2403 -103.6336 256° West 367 422 19,500 -1,742 Descending Denver Center
Fri 11:02:18 AM 40.2150 -103.7703 256° West 370 426 17,700 -1,839 Descending Denver Center
Fri 11:03:20 AM 40.1825 -103.9000 252° West 353 406 15,700 -1,935 Descending Denver Center
Fri 11:04:22 AM 40.1453 -104.0144 247° West 346 398 13,700 -1,355 Descending Denver Center
Fri 11:05:24 AM 40.0883 -104.1033 230° Southwest 332 382 12,900 -435 Descending Denver Center
Fri 11:06:26 AM 40.0042 -104.1469 202° Southwest 294 338 12,800 -677 Descending Denver Center
Fri 11:07:28 AM 39.9581 -104.2097 226° Southwest 263 303 11,500 -1,355 Descending Denver Center
Fri 11:08:30 AM 39.9328 -104.3011 250° West 250 288 10,000 -1,355 Descending Denver Center
Fri 11:09:32 AM 39.9094 -104.3864 250° West 251 289 8,700 -1,412 Descending Denver Center
Fri 11:10:12 AM 39.9000 -104.4500 259° West 251 289 7,600 -1,260 Descending Denver TRACON
Fri 11:11:12 AM 39.8833 -104.5167 252° West 212 244 6,600 -850 Descending Denver TRACON
Fri 11:12:12 AM 39.8833 -104.5833 270° West 150 173 5,900 -527 Descending Denver TRACON
Fri 11:13:40 AM 39.8772 -104.6442 263° West 117 135 5,300 -409 Descending Denver Center
Fri 11:15:00 AM 39.8617 -104.6732 180° South  Level Estimated
Fri 11:22:00 AM 39.8617 -104.6732 North  Level Estimated
Fri 11:23:00 AM 39.8617 -104.6732 North  Level Estimated

Login

Don't have an account? Register now (free) for customized features, flight alerts, and more!